Time;durP1;ratioP1;P1;durP2;ratioP2;P2;SDS_P1;SDS_P2;PMS_P1;PMS_P2;Temp;Humidity;BMP_temperature;BMP_pressure;BME280_temperature;BME280_humidity;BME280_pressure;Samples;Min_cycle;Max_cycle;Signal;HPM_P1;HPM_P2
2023/04/24 00:01:56;;;;;;;1.50;1.40;;;18.60;63.70;19.20;99361.00;;;;5028553;28;20293;-58
2023/04/24 00:04:21;;;;;;;2.03;1.20;;;18.50;63.50;19.20;99353.00;;;;5010962;28;20598;-57
2023/04/24 00:06:53;;;;;;;1.27;1.27;;;18.50;63.40;19.10;99360.00;;;;5028192;28;20234;-58
2023/04/24 00:09:19;;;;;;;1.60;1.50;;;18.50;64.10;19.20;99358.00;;;;5027170;28;20225;-56
2023/04/24 00:11:45;;;;;;;1.17;1.13;;;18.50;63.30;19.10;99349.00;;;;5028067;28;20588;-58
2023/04/24 00:14:10;;;;;;;1.40;1.30;;;18.50;63.30;19.20;99345.00;;;;5026646;28;20174;-57
2023/04/24 00:16:36;;;;;;;1.30;1.20;;;18.50;63.50;19.10;99347.00;;;;5026668;28;20528;-59
2023/04/24 00:19:02;;;;;;;1.40;1.30;;;18.50;63.80;19.10;99345.00;;;;5027158;28;20614;-57
2023/04/24 00:21:27;;;;;;;1.13;1.07;;;18.50;63.90;19.10;99357.00;;;;5027815;28;20179;-56
2023/04/24 00:23:53;;;;;;;1.57;1.47;;;18.40;63.70;19.10;99344.00;;;;5027124;28;20179;-57
2023/04/24 00:26:19;;;;;;;1.50;1.40;;;18.40;63.70;19.10;99342.00;;;;5027768;28;20210;-56
2023/04/24 00:28:45;;;;;;;1.20;1.20;;;18.40;63.50;19.10;99309.00;;;;5027752;28;20197;-57
2023/04/24 00:31:10;;;;;;;1.50;1.40;;;18.40;63.40;19.10;99334.00;;;;5027762;28;20561;-56
2023/04/24 00:33:36;;;;;;;1.50;1.30;;;18.40;63.50;19.10;99334.00;;;;5027224;28;20178;-56
2023/04/24 00:36:02;;;;;;;1.10;1.10;;;18.40;63.40;19.00;99330.00;;;;5027988;28;20190;-57
2023/04/24 00:38:29;;;;;;;1.40;1.30;;;18.40;63.40;19.00;99334.00;;;;5036121;28;20250;-56
2023/04/24 00:40:54;;;;;;;1.07;1.07;;;18.40;63.40;19.00;99334.00;;;;5029371;28;20187;-56
2023/04/24 00:43:20;;;;;;;1.13;1.03;;;18.40;63.40;19.00;99308.00;;;;5028158;28;20179;-56
2023/04/24 00:45:46;;;;;;;1.20;1.20;;;18.40;63.40;19.10;99321.00;;;;5028009;28;20240;-57
2023/04/24 00:48:12;;;;;;;1.50;1.40;;;18.40;63.30;19.00;99338.00;;;;5028595;28;20308;-57
2023/04/24 00:50:38;;;;;;;1.10;1.10;;;18.40;63.40;19.00;99325.00;;;;5027778;28;20198;-58
2023/04/24 00:53:04;;;;;;;0.97;0.97;;;18.40;63.40;19.00;99325.00;;;;5036804;28;20261;-57
2023/04/24 00:55:30;;;;;;;1.10;1.00;;;18.40;63.50;19.00;99330.00;;;;5031419;28;20213;-56
2023/04/24 00:57:55;;;;;;;1.10;1.10;;;18.30;63.30;19.00;99326.00;;;;5035806;28;20567;-56
2023/04/24 01:00:22;;;;;;;1.17;1.00;;;18.30;63.30;19.00;99334.00;;;;5034765;28;20193;-56
2023/04/24 01:02:48;;;;;;;1.20;1.10;;;18.30;63.30;19.00;99326.00;;;;5031519;28;20183;-56
2023/04/24 01:05:14;;;;;;;1.17;1.17;;;18.30;63.20;18.90;99310.00;;;;5030559;28;20195;-57
2023/04/24 01:07:43;;;;;;;1.13;1.13;;;18.30;63.30;18.90;99326.00;;;;5031504;28;20211;-57
2023/04/24 01:10:09;;;;;;;1.10;1.10;;;18.30;63.30;18.90;99321.00;;;;5029865;28;20621;-57
2023/04/24 01:12:35;;;;;;;1.50;1.40;;;18.30;63.30;18.90;99324.00;;;;5031059;28;20187;-55
2023/04/24 01:15:01;;;;;;;1.30;1.30;;;18.30;63.30;18.90;99329.00;;;;5031144;28;20245;-56
2023/04/24 01:17:27;;;;;;;1.10;1.10;;;18.20;63.20;18.90;99332.00;;;;5030820;28;20530;-57
2023/04/24 01:19:56;;;;;;;1.10;1.10;;;18.20;63.20;18.90;99327.00;;;;5031004;28;20181;-57
2023/04/24 01:22:22;;;;;;;1.40;1.30;;;18.20;63.20;18.90;99327.00;;;;5030890;28;20178;-57
2023/04/24 01:24:48;;;;;;;1.40;1.30;;;18.20;63.60;18.90;99326.00;;;;5029284;28;20175;-56
2023/04/24 01:27:14;;;;;;;1.40;1.30;;;18.20;63.50;18.90;99332.00;;;;5029325;28;20684;-57
2023/04/24 01:29:39;;;;;;;1.10;1.10;;;18.20;63.80;18.90;99333.00;;;;5029286;28;20187;-56
2023/04/24 01:32:05;;;;;;;0.90;0.90;;;18.20;63.70;18.90;99337.00;;;;5030851;28;20203;-56
2023/04/24 01:34:31;;;;;;;1.27;1.27;;;18.20;63.60;18.90;99346.00;;;;5030407;28;20175;-57
2023/04/24 01:36:57;;;;;;;0.87;0.87;;;18.10;63.50;18.90;99342.00;;;;5029438;28;20190;-56
2023/04/24 01:39:25;;;;;;;1.10;1.10;;;18.20;63.60;18.90;99343.00;;;;5012930;28;20175;-57
2023/04/24 01:41:51;;;;;;;1.10;1.10;;;18.10;63.50;18.90;99365.00;;;;5030475;28;20185;-57
2023/04/24 01:44:18;;;;;;;1.23;1.23;;;18.20;63.60;18.90;99363.00;;;;5023852;28;20193;-57
2023/04/24 01:46:43;;;;;;;0.90;0.90;;;18.10;63.40;18.90;99362.00;;;;5028796;28;20229;-57
2023/04/24 01:49:09;;;;;;;1.30;1.30;;;18.10;63.30;18.90;99351.00;;;;5030396;28;20538;-57
2023/04/24 01:51:35;;;;;;;1.13;1.13;;;18.10;63.30;18.60;99371.00;;;;5029099;28;20257;-61
2023/04/24 01:54:01;;;;;;;1.33;1.23;;;18.10;63.40;18.80;99367.00;;;;5029966;28;20222;-57
2023/04/24 01:56:27;;;;;;;1.17;1.17;;;18.10;63.30;18.80;99363.00;;;;5030396;28;20742;-57
2023/04/24 01:58:53;;;;;;;1.20;1.20;;;18.10;63.30;18.80;99367.00;;;;5012575;28;20812;-57
2023/04/24 02:01:19;;;;;;;1.60;1.50;;;18.10;63.50;18.80;99359.00;;;;5012691;28;20183;-57
2023/04/24 02:03:45;;;;;;;1.47;1.37;;;18.10;63.30;18.80;99340.00;;;;5029870;28;20187;-57
2023/04/24 02:06:11;;;;;;;1.20;1.20;;;18.10;63.30;18.80;99340.00;;;;5029970;28;20202;-58
2023/04/24 02:08:37;;;;;;;1.47;1.37;;;18.10;63.30;18.50;99361.00;;;;5028596;28;20195;-57
2023/04/24 02:11:02;;;;;;;1.40;1.40;;;18.10;63.30;18.80;99342.00;;;;5028741;28;20584;-57
2023/04/24 02:13:28;;;;;;;1.40;1.30;;;18.10;63.50;18.80;99357.00;;;;5029753;28;20782;-56
2023/04/24 02:15:54;;;;;;;1.43;1.33;;;18.00;63.40;18.80;99348.00;;;;5029899;28;20201;-57
2023/04/24 02:18:20;;;;;;;1.20;1.20;;;18.00;63.40;18.70;99360.00;;;;5029903;28;20227;-56
2023/04/24 02:20:46;;;;;;;1.50;1.40;;;18.00;63.40;18.70;99355.00;;;;5029703;28;20654;-56
2023/04/24 02:23:13;;;;;;;1.20;1.20;;;18.00;63.40;18.70;99371.00;;;;5029779;28;20205;-56
2023/04/24 02:25:38;;;;;;;1.53;1.50;;;18.00;63.40;18.70;99363.00;;;;5029470;28;20185;-57
2023/04/24 02:28:04;;;;;;;1.40;1.33;;;18.00;63.30;18.70;99373.00;;;;5028205;28;20202;-55
2023/04/24 02:30:30;;;;;;;1.60;1.50;;;18.00;63.40;18.70;99369.00;;;;5029616;28;20194;-55
2023/04/24 02:32:56;;;;;;;1.20;1.20;;;18.00;63.40;18.70;99366.00;;;;5029447;28;20179;-56
2023/04/24 02:35:22;;;;;;;1.27;1.20;;;18.00;63.40;18.70;99369.00;;;;5029733;28;20713;-56
2023/04/24 02:37:47;;;;;;;1.40;1.30;;;17.90;63.40;18.70;99350.00;;;;5030786;28;20207;-56
2023/04/24 02:40:13;;;;;;;1.20;1.20;;;17.90;63.30;18.70;99370.00;;;;5031199;28;20239;-56
2023/04/24 02:42:39;;;;;;;1.60;1.50;;;17.90;63.40;18.70;99367.00;;;;5026513;28;20191;-56
2023/04/24 02:45:05;;;;;;;1.37;1.27;;;17.90;63.50;18.70;99359.00;;;;5030795;28;20177;-56
2023/04/24 02:47:31;;;;;;;1.20;1.20;;;17.90;63.80;18.70;99307.00;;;;5029747;28;20198;-57
2023/04/24 02:49:57;;;;;;;1.50;1.40;;;17.90;63.90;18.60;99340.00;;;;5030793;28;20233;-57
2023/04/24 02:52:22;;;;;;;1.30;1.30;;;17.90;63.90;18.60;99374.00;;;;5035281;28;20175;-56
2023/04/24 02:54:48;;;;;;;1.60;1.50;;;17.90;63.80;18.60;99382.00;;;;5031782;28;20667;-56
2023/04/24 02:57:14;;;;;;;1.10;1.10;;;17.90;63.70;18.60;99344.00;;;;5029702;28;20179;-57
2023/04/24 02:59:40;;;;;;;1.57;1.50;;;17.90;63.70;18.60;99380.00;;;;5029184;28;20265;-57
2023/04/24 03:02:06;;;;;;;1.10;1.10;;;17.90;63.70;18.60;99395.00;;;;5029335;28;20195;-56
2023/04/24 03:04:32;;;;;;;1.10;1.10;;;17.90;63.70;18.50;99389.00;;;;5028944;28;20178;-56
2023/04/24 03:06:58;;;;;;;1.60;1.50;;;17.90;63.50;18.50;99328.00;;;;5029021;28;20680;-57
2023/04/24 03:09:24;;;;;;;1.30;1.20;;;17.90;63.60;18.50;99394.00;;;;5028268;28;20185;-57
2023/04/24 03:11:50;;;;;;;1.40;1.30;;;17.90;63.60;18.50;99397.00;;;;5028879;28;20182;-56
2023/04/24 03:14:16;;;;;;;1.50;1.40;;;17.90;63.50;18.50;99397.00;;;;5028942;28;20177;-56
2023/04/24 03:16:42;;;;;;;1.40;1.30;;;17.90;63.50;18.50;99395.00;;;;5028659;28;20178;-56
2023/04/24 03:19:07;;;;;;;1.50;1.40;;;17.90;63.60;18.50;99400.00;;;;5027262;28;20201;-56
2023/04/24 03:21:33;;;;;;;1.40;1.30;;;17.80;63.70;18.50;99389.00;;;;5028583;28;20245;-56
2023/04/24 03:23:59;;;;;;;1.60;1.50;;;17.80;63.90;18.50;99398.00;;;;5028373;28;20580;-58
2023/04/24 03:26:25;;;;;;;1.30;1.30;;;17.80;64.30;18.50;99412.00;;;;5028531;28;20221;-57
2023/04/24 03:28:50;;;;;;;1.50;1.47;;;17.80;64.30;18.50;99406.00;;;;5028109;28;20194;-56
2023/04/24 03:31:16;;;;;;;1.30;1.30;;;17.70;63.90;18.50;99407.00;;;;5028414;28;20269;-57
2023/04/24 03:33:42;;;;;;;1.50;1.40;;;17.80;64.20;18.50;99408.00;;;;5025031;28;20723;-58
2023/04/24 03:36:08;;;;;;;1.60;1.50;;;17.70;64.20;18.50;99409.00;;;;5022480;28;20178;-58
2023/04/24 03:38:34;;;;;;;1.70;1.60;;;17.70;63.90;18.50;99405.00;;;;5028210;28;20301;-57
2023/04/24 03:40:59;;;;;;;1.50;1.40;;;17.80;63.70;18.30;99405.00;;;;5028800;28;20186;-57
2023/04/24 03:43:27;;;;;;;2.40;1.60;;;17.70;63.50;18.50;99414.00;;;;5029851;28;20174;-57
2023/04/24 03:45:52;;;;;;;1.70;1.60;;;17.70;63.50;18.60;99414.00;;;;5030737;28;20210;-57
2023/04/24 03:48:18;;;;;;;1.53;1.43;;;17.70;63.40;18.50;99410.00;;;;5030579;28;20187;-58
2023/04/24 03:50:44;;;;;;;1.60;1.50;;;17.80;63.40;18.50;99405.00;;;;5029808;28;20684;-58
2023/04/24 03:53:09;;;;;;;1.87;1.50;;;17.70;63.30;18.50;99407.00;;;;5029467;28;20180;-57
2023/04/24 03:55:35;;;;;;;1.40;1.33;;;17.70;63.30;18.40;99406.00;;;;5031430;28;20176;-57
2023/04/24 03:58:01;;;;;;;2.67;1.70;;;17.70;63.10;18.40;99409.00;;;;5035766;28;20220;-57
2023/04/24 04:00:27;;;;;;;1.67;1.57;;;17.70;63.10;18.40;99407.00;;;;5032890;28;20227;-57
2023/04/24 04:02:53;;;;;;;1.80;1.70;;;17.70;63.10;18.40;99415.00;;;;5029142;28;20172;-57
2023/04/24 04:05:19;;;;;;;2.00;1.80;;;17.70;63.00;18.40;99418.00;;;;5027992;28;20187;-58
2023/04/24 04:07:45;;;;;;;1.67;1.57;;;17.70;63.00;18.40;99408.00;;;;5029009;28;20216;-59
2023/04/24 04:10:10;;;;;;;1.80;1.70;;;17.70;62.90;18.30;99417.00;;;;5029195;28;20201;-58
2023/04/24 04:12:36;;;;;;;1.87;1.77;;;17.60;62.80;18.40;99410.00;;;;5029361;28;20185;-59
2023/04/24 04:15:02;;;;;;;1.90;1.80;;;17.70;62.90;18.40;99409.00;;;;5029245;28;20225;-56
2023/04/24 04:17:28;;;;;;;2.20;1.87;;;17.60;62.80;18.40;99407.00;;;;5029190;28;20204;-57
2023/04/24 04:19:54;;;;;;;1.80;1.70;;;17.60;62.80;18.40;99420.00;;;;5029573;28;20176;-58
2023/04/24 04:22:20;;;;;;;2.33;2.00;;;17.60;62.80;18.40;99413.00;;;;5029508;28;20659;-57
2023/04/24 04:24:46;;;;;;;2.83;1.90;;;17.60;62.80;18.40;99415.00;;;;5029120;28;20260;-57
2023/04/24 04:27:12;;;;;;;2.27;1.97;;;17.60;62.80;18.40;99418.00;;;;5028989;28;20206;-56
2023/04/24 04:29:38;;;;;;;3.30;2.00;;;17.60;62.90;18.30;99430.00;;;;5032678;28;20617;-57
2023/04/24 04:32:04;;;;;;;3.00;1.90;;;17.60;62.90;18.40;99417.00;;;;5033295;28;20192;-57
2023/04/24 04:34:31;;;;;;;2.10;1.90;;;17.50;62.90;18.30;99410.00;;;;5033031;28;20202;-58
2023/04/24 04:36:59;;;;;;;2.07;1.70;;;17.60;62.90;18.30;99418.00;;;;5036172;28;20616;-57
2023/04/24 04:39:25;;;;;;;3.90;2.00;;;17.50;62.90;18.30;99422.00;;;;5037282;28;20222;-58
2023/04/24 04:41:50;;;;;;;2.07;1.80;;;17.60;63.00;18.30;99421.00;;;;5034484;28;20181;-58
2023/04/24 04:44:16;;;;;;;2.03;1.80;;;17.60;62.90;18.30;99427.00;;;;5025813;28;20193;-57
2023/04/24 04:46:42;;;;;;;3.67;1.90;;;17.50;62.80;18.30;99432.00;;;;5022052;28;20201;-58
2023/04/24 04:49:08;;;;;;;2.80;2.00;;;17.50;62.80;18.30;99433.00;;;;5033725;28;20189;-58
2023/04/24 04:51:34;;;;;;;2.30;2.07;;;17.60;62.90;18.20;99432.00;;;;5038135;28;20219;-58
2023/04/24 04:54:00;;;;;;;2.00;1.90;;;17.50;62.80;18.20;99427.00;;;;5038131;28;20303;-56
2023/04/24 04:56:26;;;;;;;2.10;2.00;;;17.50;62.90;18.20;99428.00;;;;5033116;28;20188;-58
2023/04/24 04:58:51;;;;;;;2.10;1.83;;;17.50;62.80;18.00;99429.00;;;;5031390;28;20630;-59
2023/04/24 05:01:17;;;;;;;2.00;1.90;;;17.50;62.80;18.20;99436.00;;;;5032717;28;20188;-58
2023/04/24 05:03:43;;;;;;;2.67;1.87;;;17.50;62.80;18.20;99433.00;;;;5028435;28;20224;-59
2023/04/24 05:06:09;;;;;;;2.77;2.00;;;17.50;62.80;18.20;99437.00;;;;5032512;28;20585;-59
2023/04/24 05:08:34;;;;;;;2.07;1.80;;;17.50;62.90;18.20;99442.00;;;;5032967;28;20205;-58
2023/04/24 05:11:00;;;;;;;1.87;1.77;;;17.50;62.80;18.20;99438.00;;;;5032301;28;20225;-58
2023/04/24 05:13:26;;;;;;;2.03;1.87;;;17.50;62.80;18.20;99438.00;;;;5031469;28;21077;-58
2023/04/24 05:15:52;;;;;;;1.80;1.70;;;17.50;62.80;18.20;99435.00;;;;5031286;28;20184;-58
2023/04/24 05:18:18;;;;;;;1.70;1.60;;;17.40;62.60;18.10;99439.00;;;;5031279;28;20248;-58
2023/04/24 05:20:43;;;;;;;2.00;1.80;;;17.40;62.70;18.10;99445.00;;;;5031899;28;20659;-58
2023/04/24 05:23:10;;;;;;;1.87;1.77;;;17.40;62.80;18.10;99450.00;;;;5031764;28;20192;-58
2023/04/24 05:25:35;;;;;;;1.90;1.80;;;17.40;62.80;18.10;99443.00;;;;5031455;28;20216;-56
2023/04/24 05:28:02;;;;;;;1.97;1.83;;;17.30;62.60;18.10;99443.00;;;;5028892;28;20234;-56
2023/04/24 05:30:28;;;;;;;2.60;1.90;;;17.40;62.70;18.10;99467.00;;;;5031299;28;20185;-58
2023/04/24 05:32:54;;;;;;;2.10;2.00;;;17.30;62.60;18.10;99450.00;;;;5030366;28;20191;-57
2023/04/24 05:35:19;;;;;;;1.90;1.80;;;17.40;62.70;18.10;99463.00;;;;5030433;28;20171;-57
2023/04/24 05:37:45;;;;;;;2.00;1.90;;;17.40;62.70;17.80;99465.00;;;;5031246;28;20205;-56
2023/04/24 05:40:11;;;;;;;2.10;1.90;;;17.40;62.70;18.10;99429.00;;;;5036489;28;20629;-57
2023/04/24 05:42:37;;;;;;;1.90;1.80;;;17.30;62.50;18.10;99468.00;;;;5024076;28;20191;-57
2023/04/24 05:45:04;;;;;;;2.40;2.20;;;17.40;62.60;18.00;99465.00;;;;5039676;28;20184;-58
2023/04/24 05:47:30;;;;;;;2.33;1.90;;;17.30;62.60;18.00;99468.00;;;;5021626;28;20208;-56
2023/04/24 05:49:55;;;;;;;2.93;1.90;;;17.30;62.60;18.00;99465.00;;;;5038043;28;20268;-56
2023/04/24 05:52:21;;;;;;;2.13;1.77;;;17.30;62.60;18.00;99472.00;;;;5026611;28;20662;-57
2023/04/24 05:54:47;;;;;;;2.10;1.90;;;17.30;62.60;18.00;99471.00;;;;5031425;28;20214;-57
2023/04/24 05:57:13;;;;;;;2.03;1.83;;;17.30;62.60;18.00;99471.00;;;;5031744;28;20200;-56
2023/04/24 05:59:40;;;;;;;2.00;1.80;;;17.20;62.50;18.00;99465.00;;;;5031262;28;20177;-56
2023/04/24 06:02:06;;;;;;;2.10;2.00;;;17.30;62.60;18.00;99468.00;;;;5030302;28;20182;-57
2023/04/24 06:04:32;;;;;;;2.43;2.00;;;17.30;62.60;17.90;99471.00;;;;5029800;28;20206;-56
2023/04/24 06:06:58;;;;;;;1.90;1.80;;;17.20;62.60;17.90;99471.00;;;;5029957;28;20198;-57
2023/04/24 06:09:24;;;;;;;2.30;2.03;;;17.20;62.50;17.90;99473.00;;;;5030019;28;20203;-57
2023/04/24 06:11:52;;;;;;;2.17;1.90;;;17.20;62.50;17.90;99472.00;;;;5029572;28;20267;-58
2023/04/24 06:14:19;;;;;;;2.00;1.90;;;17.20;62.50;17.90;99455.00;;;;5030088;28;20566;-57
2023/04/24 06:16:44;;;;;;;2.10;2.00;;;17.20;62.50;17.90;99465.00;;;;5029591;28;20216;-56
2023/04/24 06:19:10;;;;;;;2.20;2.00;;;17.20;62.50;17.90;99456.00;;;;5030697;28;20218;-56
2023/04/24 06:21:36;;;;;;;1.90;1.80;;;17.20;62.50;17.90;99476.00;;;;5028593;28;20716;-57
2023/04/24 06:24:02;;;;;;;2.00;1.90;;;17.20;62.50;17.80;99481.00;;;;5028460;28;20646;-57
2023/04/24 06:26:27;;;;;;;2.23;1.90;;;17.10;62.40;17.80;99476.00;;;;5030695;28;20275;-56
2023/04/24 06:28:53;;;;;;;1.90;1.80;;;17.20;62.50;17.90;99473.00;;;;5028477;28;20284;-57
2023/04/24 06:31:20;;;;;;;1.93;1.83;;;17.20;62.50;17.90;99476.00;;;;5029929;28;20250;-57
2023/04/24 06:33:46;;;;;;;1.87;1.77;;;17.20;62.60;17.80;99483.00;;;;5028609;28;20670;-59
2023/04/24 06:36:12;;;;;;;1.80;1.70;;;17.10;62.60;17.80;99477.00;;;;5034349;28;20268;-57
2023/04/24 06:38:38;;;;;;;2.83;2.00;;;17.10;62.60;17.80;99478.00;;;;5032727;28;20584;-56
2023/04/24 06:41:05;;;;;;;1.90;1.80;;;17.10;62.50;17.70;99476.00;;;;5023723;28;20196;-57
2023/04/24 06:43:31;;;;;;;1.90;1.80;;;17.10;62.50;17.80;99490.00;;;;5028962;28;20262;-57
2023/04/24 06:45:58;;;;;;;1.90;1.80;;;17.10;62.50;17.80;99482.00;;;;5030379;28;20237;-57
2023/04/24 06:48:25;;;;;;;1.97;1.87;;;17.10;62.50;17.80;99455.00;;;;5029131;28;20203;-57
2023/04/24 06:50:50;;;;;;;1.90;1.80;;;17.10;62.50;17.80;99489.00;;;;5017878;28;20202;-56
2023/04/24 06:53:16;;;;;;;1.80;1.70;;;17.10;62.50;17.80;99485.00;;;;5036641;28;20179;-56
2023/04/24 06:55:43;;;;;;;2.77;1.70;;;17.10;62.50;17.80;99484.00;;;;5030025;28;20183;-56
2023/04/24 06:58:09;;;;;;;1.80;1.70;;;17.00;62.30;17.80;99480.00;;;;5029295;28;20215;-57
2023/04/24 07:00:34;;;;;;;1.80;1.70;;;17.00;62.30;17.70;99480.00;;;;5030001;28;20213;-57
2023/04/24 07:03:00;;;;;;;1.80;1.70;;;17.00;62.30;17.70;99496.00;;;;5024374;28;20271;-57
2023/04/24 07:05:26;;;;;;;1.70;1.60;;;17.00;62.30;17.70;99492.00;;;;5025552;28;20175;-57
2023/04/24 07:07:52;;;;;;;1.80;1.70;;;17.00;62.30;17.70;99497.00;;;;5028741;28;20210;-58
2023/04/24 07:10:19;;;;;;;1.80;1.70;;;17.00;62.30;17.70;99503.00;;;;5028740;28;20664;-56
2023/04/24 07:12:46;;;;;;;1.90;1.80;;;17.00;62.30;17.70;99496.00;;;;5029482;28;20184;-57
2023/04/24 07:15:12;;;;;;;1.90;1.80;;;17.00;62.30;17.70;99505.00;;;;5028223;28;20183;-57
2023/04/24 07:17:43;;;;;;;1.70;1.60;;;17.00;62.30;17.60;99502.00;;;;5029309;28;20206;-56
2023/04/24 07:20:10;;;;;;;2.00;1.90;;;17.00;63.20;17.70;99490.00;;;;5029264;28;20179;-56
2023/04/24 07:22:37;;;;;;;1.80;1.70;;;17.00;62.30;17.70;99499.00;;;;5029138;28;20254;-57
2023/04/24 07:25:03;;;;;;;1.80;1.70;;;17.00;62.30;17.70;99489.00;;;;5029553;28;20175;-56
2023/04/24 07:27:29;;;;;;;2.00;1.80;;;17.00;62.30;17.60;99521.00;;;;5012643;28;20299;-55
2023/04/24 07:29:55;;;;;;;1.80;1.70;;;16.90;62.20;17.60;99512.00;;;;5030677;28;20253;-56
2023/04/24 07:32:20;;;;;;;1.90;1.80;;;16.90;62.20;17.60;99525.00;;;;5029025;28;20176;-56
2023/04/24 07:34:46;;;;;;;1.80;1.70;;;16.90;62.20;17.60;99505.00;;;;5027617;28;20340;-55
2023/04/24 07:37:12;;;;;;;2.00;1.90;;;16.90;62.20;17.60;99519.00;;;;5028521;28;20179;-56
2023/04/24 07:39:38;;;;;;;1.73;1.63;;;16.90;62.20;17.60;99521.00;;;;5028703;28;20662;-56
2023/04/24 07:42:04;;;;;;;1.73;1.63;;;16.90;62.20;17.60;99525.00;;;;5029239;28;20254;-55
2023/04/24 07:44:29;;;;;;;2.17;1.97;;;16.90;62.20;17.60;99534.00;;;;5028888;28;20183;-54
2023/04/24 07:46:55;;;;;;;1.70;1.60;;;16.90;62.20;17.60;99530.00;;;;5028632;28;20200;-54
2023/04/24 07:49:21;;;;;;;1.90;1.80;;;16.90;62.20;17.60;99530.00;;;;5029741;28;20282;-56
2023/04/24 07:51:47;;;;;;;2.27;1.60;;;16.80;62.00;17.60;99547.00;;;;5029756;28;20178;-54
2023/04/24 07:54:12;;;;;;;1.90;1.80;;;16.90;62.10;17.60;99535.00;;;;5029704;28;20187;-56
2023/04/24 07:56:38;;;;;;;1.77;1.60;;;16.90;62.10;17.60;99528.00;;;;5029903;28;20240;-57
2023/04/24 07:59:05;;;;;;;1.80;1.70;;;16.90;62.20;17.60;99543.00;;;;5029601;28;20281;-56
2023/04/24 08:01:30;;;;;;;1.77;1.67;;;16.80;62.00;17.60;99549.00;;;;5029496;28;20185;-55
2023/04/24 08:03:56;;;;;;;1.80;1.70;;;16.80;62.10;17.60;99575.00;;;;5028882;28;20180;-56
2023/04/24 08:06:22;;;;;;;1.80;1.70;;;16.80;62.10;17.60;99596.00;;;;5035963;28;20564;-54
2023/04/24 08:08:48;;;;;;;1.77;1.67;;;16.80;62.00;17.60;99579.00;;;;5026728;28;20206;-56
2023/04/24 08:11:14;;;;;;;1.53;1.43;;;16.80;62.00;17.60;99572.00;;;;5028546;28;20187;-56
2023/04/24 08:13:40;;;;;;;1.70;1.60;;;16.80;62.00;17.60;99578.00;;;;5029109;28;20171;-55
2023/04/24 08:16:05;;;;;;;1.70;1.60;;;16.80;62.80;17.60;99586.00;;;;5030016;28;20220;-57
2023/04/24 08:18:31;;;;;;;3.70;1.63;;;16.80;62.90;17.60;99581.00;;;;5024984;28;20204;-55
2023/04/24 08:21:01;;;;;;;3.20;1.70;;;16.80;62.30;17.60;99600.00;;;;5027697;28;20669;-55
2023/04/24 08:23:27;;;;;;;6.07;2.10;;;16.80;62.60;17.60;99589.00;;;;5028275;28;20344;-54
2023/04/24 08:25:52;;;;;;;2.73;1.80;;;16.80;62.90;17.60;99588.00;;;;5028602;28;20320;-57
2023/04/24 08:28:20;;;;;;;3.43;2.00;;;16.80;63.20;17.70;99579.00;;;;5027478;28;20286;-54
2023/04/24 08:30:47;;;;;;;5.57;1.77;;;16.80;63.30;17.70;99592.00;;;;5027489;28;20183;-53
2023/04/24 08:33:13;;;;;;;3.43;1.80;;;16.90;63.80;17.70;99581.00;;;;5029031;28;20212;-54
2023/04/24 08:35:39;;;;;;;3.77;1.93;;;17.00;64.50;17.80;99599.00;;;;5043702;28;20179;-54
2023/04/24 08:38:05;;;;;;;4.90;1.70;;;17.10;65.40;17.90;99590.00;;;;5040850;28;20206;-55
2023/04/24 08:40:31;;;;;;;2.30;1.60;;;17.20;65.60;17.90;99608.00;;;;5029312;28;20179;-54
2023/04/24 08:42:57;;;;;;;4.90;1.90;;;17.20;65.10;18.00;99603.00;;;;5027581;28;20259;-52
2023/04/24 08:45:22;;;;;;;4.50;1.70;;;17.40;65.00;18.00;99594.00;;;;5028077;28;20262;-54
2023/04/24 08:47:49;;;;;;;4.00;1.60;;;17.50;64.80;18.10;99607.00;;;;5027543;28;20246;-54
2023/04/24 08:50:15;;;;;;;2.80;1.50;;;17.60;64.60;18.20;99599.00;;;;5036822;28;20209;-53
2023/04/24 08:52:42;;;;;;;5.13;1.70;;;17.70;65.00;18.30;99605.00;;;;5035686;28;20521;-54
2023/04/24 08:55:08;;;;;;;2.23;1.60;;;17.80;64.10;18.30;99614.00;;;;5028210;28;20199;-55
2023/04/24 08:57:35;;;;;;;1.73;1.60;;;17.90;63.80;18.40;99622.00;;;;5027946;28;20209;-55
2023/04/24 09:00:01;;;;;;;1.80;1.50;;;18.00;63.80;18.50;99610.00;;;;5029030;28;20178;-53
2023/04/24 09:02:27;;;;;;;1.50;1.40;;;18.10;63.80;18.60;99629.00;;;;5027315;28;20178;-54
2023/04/24 09:04:53;;;;;;;3.60;1.57;;;18.10;63.50;18.60;99633.00;;;;5027608;28;20250;-55
2023/04/24 09:07:19;;;;;;;2.27;1.50;;;18.20;63.30;18.70;99652.00;;;;5027337;28;20602;-54
2023/04/24 09:09:45;;;;;;;2.77;1.67;;;18.20;63.10;18.70;99664.00;;;;5028806;28;20174;-54
2023/04/24 09:12:11;;;;;;;2.53;1.60;;;18.30;63.10;18.80;99645.00;;;;5031051;28;20213;-54
2023/04/24 09:14:44;;;;;;;1.40;1.30;;;18.40;63.10;18.80;99668.00;;;;5018751;28;20180;-55
2023/04/24 09:17:13;;;;;;;2.80;2.00;;;18.40;63.20;18.90;99688.00;;;;5031827;28;20190;-54
2023/04/24 09:19:40;;;;;;;2.67;1.70;;;18.40;63.30;18.90;99682.00;;;;5033862;28;20237;-54
2023/04/24 09:22:06;;;;;;;2.43;1.70;;;18.40;63.20;19.00;99689.00;;;;5033302;28;20621;-54
2023/04/24 09:24:33;;;;;;;2.27;1.80;;;18.40;63.10;19.00;99695.00;;;;5035999;28;20179;-54
2023/04/24 09:27:01;;;;;;;3.17;1.70;;;18.50;63.30;19.00;99699.00;;;;5032038;28;20226;-54
2023/04/24 09:29:27;;;;;;;4.83;1.67;;;18.50;63.10;19.10;99654.00;;;;5030591;28;21121;-54
2023/04/24 09:31:52;;;;;;;4.37;1.70;;;18.60;63.30;19.10;99704.00;;;;5031821;28;20291;-54
2023/04/24 09:34:23;;;;;;;5.23;1.90;;;18.60;63.20;19.10;99709.00;;;;5031963;28;20171;-55
2023/04/24 09:36:49;;;;;;;6.10;1.90;;;18.60;63.40;19.20;99717.00;;;;5031962;28;20282;-54
2023/04/24 09:39:16;;;;;;;3.50;1.53;;;18.60;64.20;19.20;99727.00;;;;5031890;28;20281;-54
2023/04/24 09:42:02;;;;;;;3.33;1.70;;;18.60;63.40;19.20;99733.00;;;;5031697;28;20269;-54
2023/04/24 09:44:28;;;;;;;2.07;1.57;;;18.60;63.30;19.20;99753.00;;;;5031633;28;20190;-56
2023/04/24 09:46:56;;;;;;;6.27;2.17;;;18.60;63.40;19.20;99740.00;;;;5030453;28;20190;-54
2023/04/24 09:49:25;;;;;;;2.37;2.00;;;18.60;63.70;19.20;99762.00;;;;5027038;28;20190;-53
2023/04/24 09:51:51;;;;;;;2.50;1.80;;;18.50;63.90;19.20;99756.00;;;;5046689;28;20182;-54
2023/04/24 09:54:21;;;;;;;4.70;2.17;;;18.50;63.90;19.20;99772.00;;;;5031152;28;20179;-55
2023/04/24 09:56:50;;;;;;;4.20;1.80;;;18.50;63.90;19.20;99769.00;;;;5028983;28;20390;-55
2023/04/24 09:59:18;;;;;;;4.30;1.87;;;18.50;64.10;19.20;99774.00;;;;5020148;28;20278;-58
2023/04/24 10:01:44;;;;;;;2.80;2.00;;;18.50;63.90;19.20;99774.00;;;;5029455;28;20688;-55
2023/04/24 10:04:24;;;;;;;4.17;2.00;;;18.50;63.80;19.20;99771.00;;;;5029749;28;20175;-56
2023/04/24 10:06:51;;;;;;;6.60;2.30;;;18.50;63.80;19.20;99786.00;;;;5030056;28;20226;-56
2023/04/24 10:09:18;;;;;;;4.03;1.80;;;18.40;63.70;19.20;99786.00;;;;5029135;28;20198;-57
2023/04/24 10:11:45;;;;;;;3.60;2.20;;;18.40;63.70;19.10;99788.00;;;;5030287;28;20200;-56
2023/04/24 10:14:16;;;;;;;5.53;2.63;;;18.40;63.60;19.10;99774.00;;;;5029746;28;20167;-57
2023/04/24 10:16:42;;;;;;;4.27;2.10;;;18.40;63.90;19.10;99791.00;;;;5030499;28;20198;-57
2023/04/24 10:19:09;;;;;;;2.30;2.07;;;18.40;64.00;19.10;99792.00;;;;5030657;28;20296;-57
2023/04/24 10:21:37;;;;;;;3.17;2.13;;;18.30;64.30;19.10;99800.00;;;;5028465;28;20266;-56
2023/04/24 10:24:04;;;;;;;2.40;2.00;;;18.30;64.30;19.10;99809.00;;;;5031407;28;20655;-57
2023/04/24 10:26:30;;;;;;;3.23;2.10;;;18.30;64.30;19.10;99805.00;;;;5029516;28;20210;-58
2023/04/24 10:28:57;;;;;;;2.93;1.90;;;18.40;64.60;19.00;99805.00;;;;5012350;28;20191;-57
2023/04/24 10:31:23;;;;;;;3.33;2.30;;;18.30;64.50;19.00;99809.00;;;;5030743;28;20254;-56
2023/04/24 10:33:49;;;;;;;2.23;2.00;;;18.30;64.50;19.00;99809.00;;;;5035970;28;20203;-57
2023/04/24 10:36:15;;;;;;;2.07;1.90;;;18.30;64.50;19.00;99818.00;;;;5024650;28;20526;-56
2023/04/24 10:38:41;;;;;;;2.10;1.90;;;18.30;64.50;19.00;99828.00;;;;5030801;28;20202;-56
2023/04/24 10:41:15;;;;;;;7.43;2.20;;;18.30;64.70;19.00;99826.00;;;;5030575;28;20186;-57
2023/04/24 10:43:41;;;;;;;3.10;1.90;;;18.30;64.60;18.90;99829.00;;;;5031234;28;20209;-57
2023/04/24 10:46:08;;;;;;;4.17;2.00;;;18.30;65.30;18.90;99836.00;;;;5030053;28;20247;-57
2023/04/24 10:48:34;;;;;;;6.10;2.40;;;18.30;64.60;18.90;99828.00;;;;5038091;28;20259;-56
2023/04/24 10:50:59;;;;;;;8.50;2.30;;;18.30;64.70;18.90;99834.00;;;;5038412;28;20257;-57